createdAt,value
2023-03-29T00:01:09.282Z,1.58
2023-03-29T00:03:40.885Z,1.80
2023-03-29T00:06:09.806Z,1.75
2023-03-29T00:08:41.531Z,1.70
2023-03-29T00:11:10.860Z,1.60
2023-03-29T00:13:39.693Z,3.25
2023-03-29T00:16:08.774Z,1.83
2023-03-29T00:18:37.449Z,1.67
2023-03-29T00:21:06.373Z,1.77
2023-03-29T00:23:35.356Z,1.50
2023-03-29T00:26:05.943Z,2.13
2023-03-29T00:28:36.529Z,1.88
2023-03-29T00:31:10.173Z,2.42
2023-03-29T00:33:39.370Z,1.48
2023-03-29T00:36:10.248Z,1.80
2023-03-29T00:38:39.784Z,1.60
2023-03-29T00:41:09.400Z,1.73
2023-03-29T00:43:55.503Z,1.75
2023-03-29T00:46:25.380Z,1.60
2023-03-29T00:48:55.663Z,1.65
2023-03-29T00:51:25.829Z,1.50
2023-03-29T00:54:01.962Z,1.48
2023-03-29T00:56:41.019Z,1.65
2023-03-29T00:59:17.117Z,1.50
2023-03-29T01:02:06.651Z,1.80
2023-03-29T01:04:46.820Z,1.77
2023-03-29T01:07:29.745Z,2.10
2023-03-29T01:10:06.435Z,1.50
2023-03-29T01:12:39.682Z,1.60
2023-03-29T01:15:12.632Z,1.60
2023-03-29T01:17:45.737Z,1.60
2023-03-29T01:20:40.240Z,1.67
2023-03-29T01:23:44.951Z,1.30
2023-03-29T01:26:34.852Z,1.52
2023-03-29T01:29:13.434Z,1.83
2023-03-29T01:31:46.658Z,1.40
2023-03-29T01:34:40.226Z,1.17
2023-03-29T01:37:32.640Z,1.65
2023-03-29T01:40:02.350Z,1.52
2023-03-29T01:42:37.223Z,1.50
2023-03-29T01:45:17.967Z,1.90
2023-03-29T01:48:03.237Z,1.63
2023-03-29T01:50:34.455Z,1.52
2023-03-29T01:53:09.674Z,1.63
2023-03-29T01:55:42.116Z,1.48
2023-03-29T01:58:11.922Z,1.63
2023-03-29T02:00:42.143Z,1.42
2023-03-29T02:03:12.131Z,1.38
2023-03-29T02:05:42.489Z,1.60
2023-03-29T02:08:13.842Z,1.33
2023-03-29T02:10:42.722Z,1.58
2023-03-29T02:13:11.445Z,1.83
2023-03-29T02:15:41.270Z,1.45
2023-03-29T02:18:10.031Z,1.73
2023-03-29T02:20:41.994Z,1.88
2023-03-29T02:23:40.171Z,1.60
2023-03-29T02:26:10.412Z,1.75
2023-03-29T02:28:39.256Z,1.73
2023-03-29T02:31:32.290Z,1.55
2023-03-29T02:34:04.714Z,1.60
2023-03-29T02:36:42.001Z,1.40
2023-03-29T02:39:13.979Z,1.42
2023-03-29T02:41:44.728Z,1.73
2023-03-29T02:44:16.335Z,1.50
2023-03-29T02:46:45.189Z,1.60
2023-03-29T02:49:14.053Z,1.95
2023-03-29T02:51:42.767Z,1.77
2023-03-29T02:54:19.918Z,2.00
2023-03-29T02:56:51.184Z,1.50
2023-03-29T02:59:27.109Z,1.58
2023-03-29T03:01:55.801Z,1.55
2023-03-29T03:04:24.523Z,1.90
2023-03-29T03:06:53.272Z,1.58
2023-03-29T03:09:22.191Z,1.63
2023-03-29T03:11:51.053Z,1.90
2023-03-29T03:14:20.392Z,1.58
2023-03-29T03:16:49.078Z,1.75
2023-03-29T03:19:17.733Z,1.90
2023-03-29T03:21:47.011Z,1.65
2023-03-29T03:24:15.734Z,1.85
2023-03-29T03:26:44.447Z,1.90
2023-03-29T03:29:13.540Z,1.45
2023-03-29T03:31:42.675Z,2.25
2023-03-29T03:34:11.341Z,1.63
2023-03-29T03:36:40.167Z,2.28
2023-03-29T03:39:08.994Z,1.70
2023-03-29T03:41:37.840Z,2.42
2023-03-29T03:44:06.734Z,1.80
2023-03-29T03:46:35.357Z,2.50
2023-03-29T03:49:04.294Z,1.90
2023-03-29T03:51:33.558Z,1.90
2023-03-29T03:54:02.502Z,1.83
2023-03-29T03:56:30.640Z,1.88
2023-03-29T03:58:59.238Z,2.25
2023-03-29T04:01:28.806Z,2.28
2023-03-29T04:03:57.508Z,2.45
2023-03-29T04:06:26.848Z,2.08
2023-03-29T04:08:55.470Z,2.17
2023-03-29T04:11:24.191Z,2.15
2023-03-29T04:13:53.324Z,2.20
2023-03-29T04:16:22.551Z,2.58
2023-03-29T04:18:51.618Z,2.42
2023-03-29T04:21:21.341Z,2.13
2023-03-29T04:23:50.097Z,2.45
2023-03-29T04:26:19.431Z,2.80
2023-03-29T04:28:48.321Z,2.30
2023-03-29T04:31:17.187Z,2.33
2023-03-29T04:33:47.829Z,2.65
2023-03-29T04:36:17.324Z,2.67
2023-03-29T04:38:47.703Z,2.63
2023-03-29T04:41:17.204Z,2.50
2023-03-29T04:43:47.819Z,2.15
2023-03-29T04:46:17.043Z,2.53
2023-03-29T04:48:45.946Z,2.88
2023-03-29T04:51:14.851Z,3.00
2023-03-29T04:53:43.723Z,2.47
2023-03-29T04:56:12.412Z,2.55
2023-03-29T04:58:41.105Z,2.75
2023-03-29T05:01:10.506Z,2.55
2023-03-29T05:03:39.162Z,3.03
2023-03-29T05:06:10.552Z,2.58
2023-03-29T05:08:40.957Z,2.70
2023-03-29T05:11:11.713Z,2.60
2023-03-29T05:13:41.232Z,2.50
2023-03-29T05:16:12.413Z,2.67
2023-03-29T05:18:41.397Z,2.65
2023-03-29T05:21:10.862Z,2.85
2023-03-29T05:23:39.758Z,2.78
2023-03-29T05:26:09.577Z,3.08
2023-03-29T05:28:38.192Z,2.53
2023-03-29T05:31:07.668Z,3.08
2023-03-29T05:33:37.118Z,2.75
2023-03-29T05:36:15.038Z,2.35
2023-03-29T05:38:46.482Z,2.50
2023-03-29T05:41:17.289Z,2.80
2023-03-29T05:43:46.125Z,3.08
2023-03-29T05:46:14.984Z,2.50
2023-03-29T05:48:44.043Z,2.50
2023-03-29T05:51:12.745Z,2.63
2023-03-29T05:53:41.494Z,2.60
2023-03-29T05:56:12.226Z,2.60
2023-03-29T05:58:40.955Z,2.50
2023-03-29T06:01:16.709Z,2.17
2023-03-29T06:03:45.565Z,2.47
2023-03-29T06:06:17.484Z,2.55
2023-03-29T06:08:46.773Z,2.83
2023-03-29T06:11:17.006Z,2.83
2023-03-29T06:13:45.679Z,2.25
2023-03-29T06:16:15.319Z,2.65
2023-03-29T06:18:43.979Z,2.70
2023-03-29T06:21:15.592Z,3.15
2023-03-29T06:23:44.431Z,2.53
2023-03-29T06:26:14.310Z,2.47
2023-03-29T06:28:43.422Z,2.50
2023-03-29T06:31:12.112Z,2.80
2023-03-29T06:33:41.698Z,2.78
2023-03-29T06:36:11.322Z,2.30
2023-03-29T06:38:40.171Z,2.33
2023-03-29T06:41:09.918Z,2.63
2023-03-29T06:43:39.065Z,2.30
2023-03-29T06:46:13.356Z,2.50
2023-03-29T06:48:42.862Z,2.42
2023-03-29T06:51:11.569Z,2.42
2023-03-29T06:53:40.510Z,2.33
2023-03-29T06:56:10.983Z,2.75
2023-03-29T06:58:39.694Z,2.17
2023-03-29T07:01:08.883Z,2.53
2023-03-29T07:03:37.795Z,2.22
2023-03-29T07:06:11.521Z,2.67
2023-03-29T07:08:48.364Z,2.78
2023-03-29T07:11:19.230Z,2.30
2023-03-29T07:13:50.324Z,2.40
2023-03-29T07:16:20.733Z,2.35
2023-03-29T07:18:49.429Z,2.40
2023-03-29T07:21:18.661Z,2.63
2023-03-29T07:23:47.506Z,2.50
2023-03-29T07:26:28.742Z,2.38
2023-03-29T07:28:58.944Z,2.55
2023-03-29T07:31:27.929Z,2.40
2023-03-29T07:33:57.212Z,2.45
2023-03-29T07:36:26.709Z,2.90
2023-03-29T07:38:56.408Z,2.90
2023-03-29T07:41:25.094Z,2.78
2023-03-29T07:43:53.823Z,2.40
2023-03-29T07:46:22.664Z,2.67
2023-03-29T07:48:51.440Z,2.47
2023-03-29T07:51:20.175Z,2.35
2023-03-29T07:53:48.823Z,2.80
2023-03-29T07:56:17.820Z,3.00
2023-03-29T07:58:47.946Z,2.67
2023-03-29T08:01:19.340Z,2.88
2023-03-29T08:03:48.670Z,3.38
2023-03-29T08:06:18.113Z,2.35
2023-03-29T08:08:46.804Z,2.60
2023-03-29T08:11:15.591Z,2.58
2023-03-29T08:13:44.386Z,2.33
2023-03-29T08:16:16.432Z,2.50
2023-03-29T08:18:45.298Z,2.25
2023-03-29T08:21:16.173Z,2.55
2023-03-29T08:23:44.840Z,2.63
2023-03-29T08:26:13.808Z,2.47
2023-03-29T08:28:42.419Z,2.50
2023-03-29T08:31:14.237Z,2.10
2023-03-29T08:33:45.444Z,2.28
2023-03-29T08:36:14.324Z,2.22
2023-03-29T08:38:43.024Z,2.45
2023-03-29T08:41:39.945Z,2.53
2023-03-29T08:44:24.711Z,2.50
2023-03-29T08:47:22.002Z,2.45
2023-03-29T08:49:54.290Z,2.83
2023-03-29T08:52:38.149Z,2.25
2023-03-29T08:57:48.974Z,2.38
2023-03-29T09:00:39.120Z,2.35
2023-03-29T09:03:23.587Z,2.55
2023-03-29T09:05:59.930Z,2.60
2023-03-29T09:08:29.096Z,2.38
2023-03-29T09:11:06.637Z,2.53
2023-03-29T09:13:41.707Z,2.95
2023-03-29T09:16:37.049Z,2.60
2023-03-29T09:19:32.650Z,2.60
2023-03-29T09:22:17.325Z,2.60
2023-03-29T09:24:51.315Z,2.72
2023-03-29T09:27:33.781Z,2.50
2023-03-29T09:30:12.535Z,2.90
2023-03-29T09:33:03.243Z,2.40
2023-03-29T09:35:36.349Z,2.60
2023-03-29T09:38:06.130Z,2.47
2023-03-29T09:40:53.780Z,2.70
2023-03-29T09:43:35.084Z,2.70
2023-03-29T09:46:17.148Z,2.85
2023-03-29T09:48:47.855Z,2.78
2023-03-29T09:51:17.089Z,2.63
2023-03-29T09:53:45.729Z,2.92
2023-03-29T09:56:17.249Z,3.30
2023-03-29T09:58:46.315Z,2.90
2023-03-29T10:01:18.830Z,3.20
2023-03-29T10:03:55.041Z,3.58
2023-03-29T10:06:26.979Z,3.20
2023-03-29T10:08:58.062Z,2.72
2023-03-29T10:11:34.445Z,3.33
2023-03-29T10:14:06.043Z,2.80
2023-03-29T10:16:42.852Z,3.45
2023-03-29T10:19:34.337Z,3.40
2023-03-29T10:22:19.866Z,3.13
2023-03-29T10:24:53.640Z,3.15
2023-03-29T10:27:25.100Z,3.45
2023-03-29T10:29:54.305Z,3.58
2023-03-29T10:32:30.705Z,3.53
2023-03-29T10:35:05.385Z,4.88
2023-03-29T10:37:34.004Z,3.50
2023-03-29T10:40:02.940Z,4.00
2023-03-29T10:42:31.598Z,3.38
2023-03-29T10:45:01.543Z,3.63
2023-03-29T10:47:35.634Z,3.75
2023-03-29T10:50:08.026Z,3.50
2023-03-29T10:52:36.667Z,4.03
2023-03-29T10:55:05.407Z,3.80
2023-03-29T10:57:53.466Z,3.60
2023-03-29T11:00:44.783Z,4.03
2023-03-29T11:03:23.592Z,4.00
2023-03-29T11:05:56.000Z,3.85
2023-03-29T11:08:30.420Z,4.00
2023-03-29T11:11:42.549Z,3.80
2023-03-29T11:14:43.276Z,3.72
2023-03-29T11:17:30.563Z,3.92
2023-03-29T11:20:50.951Z,3.50
2023-03-29T11:24:04.014Z,4.07
2023-03-29T11:26:51.682Z,4.00
2023-03-29T11:29:28.557Z,3.72
2023-03-29T11:32:19.320Z,3.92
2023-03-29T11:35:10.903Z,4.38
2023-03-29T11:38:15.493Z,4.05
2023-03-29T11:40:44.163Z,3.05
2023-03-29T11:43:21.771Z,3.67
2023-03-29T11:46:16.511Z,3.25
2023-03-29T11:49:02.969Z,4.38
2023-03-29T11:51:47.648Z,3.40
2023-03-29T11:54:16.282Z,4.53
2023-03-29T11:57:16.151Z,3.67
2023-03-29T11:59:46.568Z,4.15
2023-03-29T12:02:34.409Z,3.25
2023-03-29T12:05:12.387Z,3.50
2023-03-29T12:08:12.245Z,3.63
2023-03-29T12:10:49.220Z,3.45
2023-03-29T12:13:55.977Z,3.17
2023-03-29T12:16:27.950Z,3.35
2023-03-29T12:18:58.888Z,3.60
2023-03-29T12:21:28.958Z,3.35
2023-03-29T12:23:57.692Z,3.75
2023-03-29T12:26:36.157Z,3.60
2023-03-29T12:29:13.953Z,4.32
2023-03-29T12:31:56.193Z,3.45
2023-03-29T12:34:43.627Z,4.13
2023-03-29T12:37:38.764Z,3.38
2023-03-29T12:40:16.907Z,3.50
2023-03-29T12:42:55.787Z,3.22
2023-03-29T12:45:40.275Z,3.63
2023-03-29T12:48:09.951Z,4.15
2023-03-29T12:50:52.328Z,3.47
2023-03-29T12:53:27.238Z,3.75
2023-03-29T12:56:12.940Z,3.50
2023-03-29T12:58:41.717Z,3.60
2023-03-29T13:01:42.431Z,3.45
2023-03-29T13:04:19.878Z,3.35
2023-03-29T13:06:48.494Z,3.70
2023-03-29T13:09:31.108Z,3.97
2023-03-29T13:12:18.012Z,3.35
2023-03-29T13:14:51.755Z,4.35
2023-03-29T13:17:27.905Z,3.90
2023-03-29T13:20:10.855Z,4.13
2023-03-29T13:23:08.518Z,4.10
2023-03-29T13:25:42.781Z,4.40
2023-03-29T13:28:51.669Z,4.30
2023-03-29T13:31:23.185Z,3.75
2023-03-29T13:34:18.076Z,3.78
2023-03-29T13:37:22.412Z,4.47
2023-03-29T13:39:54.311Z,3.38
2023-03-29T13:42:35.641Z,3.58
2023-03-29T13:45:16.355Z,3.53
2023-03-29T13:48:02.383Z,3.60
2023-03-29T13:50:39.629Z,3.15
2023-03-29T13:53:15.211Z,2.75
2023-03-29T13:55:50.105Z,3.53
2023-03-29T13:58:32.234Z,3.40
2023-03-29T14:01:19.643Z,3.00
2023-03-29T14:03:50.835Z,3.33
2023-03-29T14:06:27.936Z,3.38
2023-03-29T14:08:57.651Z,3.80
2023-03-29T14:11:29.582Z,3.42
2023-03-29T14:14:03.300Z,3.10
2023-03-29T14:16:34.584Z,3.17
2023-03-29T14:19:33.386Z,2.83
2023-03-29T14:22:03.833Z,3.08
2023-03-29T14:24:49.374Z,3.40
2023-03-29T14:27:19.064Z,3.42
2023-03-29T14:29:52.602Z,3.60
2023-03-29T14:34:52.273Z,3.33
2023-03-29T14:37:25.958Z,3.30
2023-03-29T14:39:55.070Z,3.10
2023-03-29T14:42:28.146Z,3.47
2023-03-29T14:45:07.748Z,3.90
2023-03-29T14:47:37.733Z,3.50
2023-03-29T14:50:07.533Z,3.45
2023-03-29T14:52:36.447Z,3.55
2023-03-29T14:55:05.543Z,3.55
2023-03-29T14:57:39.220Z,3.42
2023-03-29T15:00:29.932Z,3.03
2023-03-29T15:03:03.165Z,2.88
2023-03-29T15:05:41.449Z,3.22
2023-03-29T15:08:33.172Z,3.00
2023-03-29T15:11:02.608Z,3.30
2023-03-29T15:13:32.176Z,3.20
2023-03-29T15:16:04.572Z,2.92
2023-03-29T15:18:41.162Z,3.13
2023-03-29T15:21:11.413Z,2.83
2023-03-29T15:23:49.824Z,2.95
2023-03-29T15:26:39.653Z,3.25
2023-03-29T15:29:24.662Z,2.75
2023-03-29T15:31:58.275Z,2.55
2023-03-29T15:36:56.469Z,2.85
2023-03-29T15:39:25.365Z,2.83
2023-03-29T15:41:54.795Z,3.30
2023-03-29T15:44:29.345Z,3.33
2023-03-29T15:46:59.112Z,2.70
2023-03-29T15:49:28.252Z,3.00
2023-03-29T15:51:57.212Z,3.13
2023-03-29T15:54:26.016Z,3.13
2023-03-29T15:57:05.328Z,2.97
2023-03-29T15:59:34.129Z,2.90
2023-03-29T16:02:03.015Z,2.90
2023-03-29T16:04:31.856Z,2.72
2023-03-29T16:07:00.714Z,3.08
2023-03-29T16:09:30.772Z,2.95
2023-03-29T16:12:01.599Z,2.80
2023-03-29T16:14:33.798Z,3.20
2023-03-29T16:17:04.148Z,2.60
2023-03-29T16:19:33.955Z,3.20
2023-03-29T16:22:04.721Z,2.90
2023-03-29T16:24:34.440Z,3.00
2023-03-29T16:27:03.809Z,2.88
2023-03-29T16:29:32.593Z,3.15
2023-03-29T16:32:03.452Z,3.10
2023-03-29T16:34:34.117Z,3.13
2023-03-29T16:37:03.023Z,2.70
2023-03-29T16:39:31.958Z,2.90
2023-03-29T16:42:00.657Z,2.90
2023-03-29T16:44:29.295Z,2.45
2023-03-29T16:47:00.924Z,2.55
2023-03-29T16:49:29.809Z,2.88
2023-03-29T16:51:58.598Z,2.70
2023-03-29T16:54:30.983Z,2.85
2023-03-29T16:56:59.634Z,2.50
2023-03-29T16:59:27.803Z,2.60
2023-03-29T17:01:56.184Z,2.80
2023-03-29T17:04:24.841Z,2.88
2023-03-29T17:06:53.479Z,2.60
2023-03-29T17:09:22.593Z,2.70
2023-03-29T17:11:51.792Z,2.90
2023-03-29T17:16:49.220Z,2.60
2023-03-29T17:19:17.869Z,2.50
2023-03-29T17:21:46.769Z,2.60
2023-03-29T17:24:15.401Z,3.03
2023-03-29T17:26:45.769Z,3.03
2023-03-29T17:29:14.601Z,2.63
2023-03-29T17:31:49.258Z,2.55
2023-03-29T17:34:20.639Z,2.58
2023-03-29T17:36:50.243Z,2.60
2023-03-29T17:39:20.047Z,2.78
2023-03-29T17:41:49.191Z,2.47
2023-03-29T17:44:17.866Z,2.50
2023-03-29T17:46:46.705Z,2.55
2023-03-29T17:49:16.258Z,2.53
2023-03-29T17:51:45.021Z,2.45
2023-03-29T17:54:13.912Z,2.60
2023-03-29T17:56:42.620Z,2.50
2023-03-29T17:59:11.337Z,2.50
2023-03-29T18:01:40.341Z,2.22
2023-03-29T18:04:09.225Z,2.90
2023-03-29T18:06:37.933Z,2.55
2023-03-29T18:09:06.949Z,2.65
2023-03-29T18:11:37.695Z,2.33
2023-03-29T18:14:06.919Z,2.45
2023-03-29T18:16:35.654Z,2.70
2023-03-29T18:19:04.331Z,2.55
2023-03-29T18:21:33.052Z,2.75
2023-03-29T18:24:02.032Z,2.60
2023-03-29T18:26:31.140Z,2.72
2023-03-29T18:28:59.925Z,2.67
2023-03-29T18:31:28.762Z,2.50
2023-03-29T18:33:56.829Z,3.30
2023-03-29T18:36:27.200Z,4.32
2023-03-29T18:38:57.132Z,3.92
2023-03-29T18:41:25.762Z,3.97
2023-03-29T18:43:58.847Z,4.25
2023-03-29T18:46:31.940Z,6.15
2023-03-29T18:49:01.921Z,4.43
2023-03-29T18:51:30.762Z,2.80
2023-03-29T18:53:59.446Z,2.83
2023-03-29T18:56:29.029Z,4.75
2023-03-29T18:58:57.671Z,2.80
2023-03-29T19:01:26.640Z,2.85
2023-03-29T19:03:55.426Z,2.83
2023-03-29T19:06:24.215Z,2.67
2023-03-29T19:08:52.903Z,2.53
2023-03-29T19:11:21.581Z,2.88
2023-03-29T19:13:52.034Z,3.15
2023-03-29T19:16:20.779Z,3.45
2023-03-29T19:18:49.490Z,2.80
2023-03-29T19:21:18.203Z,2.63
2023-03-29T19:23:47.575Z,2.45
2023-03-29T19:26:16.734Z,2.40
2023-03-29T19:28:45.450Z,2.50
2023-03-29T19:31:14.150Z,2.25
2023-03-29T19:33:43.306Z,2.85
2023-03-29T19:36:12.027Z,2.40
2023-03-29T19:38:40.771Z,2.25
2023-03-29T19:41:09.790Z,2.40
2023-03-29T19:43:38.458Z,2.50
2023-03-29T19:46:09.431Z,2.28
2023-03-29T19:48:38.571Z,2.67
2023-03-29T19:51:08.071Z,2.97
2023-03-29T19:53:38.619Z,3.20
2023-03-29T19:56:12.022Z,2.90
2023-03-29T19:58:40.737Z,2.92
2023-03-29T20:01:09.156Z,2.50
2023-03-29T20:03:37.790Z,2.97
2023-03-29T20:06:06.918Z,2.67
2023-03-29T20:08:39.950Z,2.80
2023-03-29T20:11:11.486Z,2.80
2023-03-29T20:13:42.723Z,2.22
2023-03-29T20:16:14.388Z,2.50
2023-03-29T20:18:46.125Z,2.30
2023-03-29T20:21:17.617Z,2.78
2023-03-29T20:23:46.269Z,2.15
2023-03-29T20:26:14.867Z,2.53
2023-03-29T20:28:43.972Z,2.83
2023-03-29T20:31:12.629Z,3.00
2023-03-29T20:33:42.680Z,2.58
2023-03-29T20:36:11.640Z,2.92
2023-03-29T20:38:40.352Z,2.50
2023-03-29T20:41:10.439Z,2.80
2023-03-29T20:43:39.154Z,2.70
2023-03-29T20:46:31.913Z,4.03
2023-03-29T20:49:10.195Z,2.60
2023-03-29T20:51:39.835Z,2.95
2023-03-29T20:54:08.862Z,2.75
2023-03-29T20:56:43.676Z,2.60
2023-03-29T20:59:12.361Z,3.25
2023-03-29T21:01:43.802Z,2.70
2023-03-29T21:04:12.517Z,2.35
2023-03-29T21:06:41.188Z,2.60
2023-03-29T21:09:09.947Z,2.67
2023-03-29T21:11:38.792Z,2.40
2023-03-29T21:14:07.480Z,2.53
2023-03-29T21:16:36.194Z,1.90
2023-03-29T21:19:04.857Z,2.15
2023-03-29T21:21:34.985Z,2.08
2023-03-29T21:24:04.418Z,2.30
2023-03-29T21:26:33.096Z,2.08
2023-03-29T21:29:02.609Z,2.10
2023-03-29T21:31:31.346Z,2.20
2023-03-29T21:34:00.102Z,2.60
2023-03-29T21:36:28.736Z,2.60
2023-03-29T21:38:57.567Z,2.85
2023-03-29T21:41:26.234Z,2.78
2023-03-29T21:43:54.923Z,3.10
2023-03-29T21:46:23.547Z,3.20
2023-03-29T21:48:52.339Z,3.15
2023-03-29T21:51:20.939Z,3.15
2023-03-29T21:53:49.530Z,3.13
2023-03-29T21:56:18.119Z,3.55
2023-03-29T21:58:46.725Z,3.30
2023-03-29T22:01:15.438Z,4.15
2023-03-29T22:03:44.138Z,3.20
2023-03-29T22:06:15.358Z,3.30
2023-03-29T22:08:43.932Z,3.08
2023-03-29T22:11:17.649Z,4.18
2023-03-29T22:13:46.911Z,3.67
2023-03-29T22:16:18.229Z,3.33
2023-03-29T22:18:50.881Z,3.95
2023-03-29T22:21:24.925Z,3.10
2023-03-29T22:23:55.104Z,3.22
2023-03-29T22:26:26.385Z,3.20
2023-03-29T22:28:55.622Z,3.13
2023-03-29T22:31:25.222Z,3.25
2023-03-29T22:33:54.684Z,3.53
2023-03-29T22:36:28.937Z,3.08
2023-03-29T22:38:57.766Z,3.00
2023-03-29T22:41:28.944Z,3.05
2023-03-29T22:43:59.845Z,3.42
2023-03-29T22:46:28.862Z,2.85
2023-03-29T22:48:57.751Z,2.97
2023-03-29T22:51:26.591Z,3.00
2023-03-29T22:53:55.242Z,2.88
2023-03-29T22:56:24.647Z,2.92
2023-03-29T22:58:53.536Z,3.30
2023-03-29T23:01:22.170Z,2.65
2023-03-29T23:03:50.902Z,3.30
2023-03-29T23:06:22.793Z,3.05
2023-03-29T23:08:51.371Z,3.95
2023-03-29T23:11:20.229Z,2.72
2023-03-29T23:13:50.039Z,4.25
2023-03-29T23:16:21.928Z,3.55
2023-03-29T23:18:50.311Z,4.57
2023-03-29T23:21:18.967Z,3.40
2023-03-29T23:23:47.666Z,2.75
2023-03-29T23:26:17.235Z,2.95
2023-03-29T23:28:46.209Z,3.17
2023-03-29T23:31:19.406Z,3.10
2023-03-29T23:33:48.429Z,2.78
2023-03-29T23:36:19.685Z,2.90
2023-03-29T23:38:49.158Z,3.30
2023-03-29T23:41:19.046Z,3.70
2023-03-29T23:43:51.492Z,3.22
2023-03-29T23:46:20.341Z,3.15
2023-03-29T23:48:50.337Z,2.33
2023-03-29T23:51:20.051Z,2.90
2023-03-29T23:53:49.772Z,2.47
2023-03-29T23:56:18.444Z,2.55
2023-03-29T23:58:47.270Z,2.60
